Time;durP1;ratioP1;P1;durP2;ratioP2;P2;SDS_P1;SDS_P2;PMS_P1;PMS_P2;Temp;Humidity;BMP_temperature;BMP_pressure;BME280_temperature;BME280_humidity;BME280_pressure;Samples;Min_cycle;Max_cycle;Signal;HPM_P1;HPM_P2
2023/08/11 00:01:09;;;;;;;4.90;2.47;;;;;;;18.52;66.00;99628.56;7274345;40;20264;31
2023/08/11 00:06:45;;;;;;;3.27;2.30;;;;;;;18.47;65.81;99633.84;7274941;39;20404;31
2023/08/11 00:12:17;;;;;;;4.60;2.37;;;;;;;18.59;65.32;99634.09;7285726;39;20357;31
2023/08/11 00:17:49;;;;;;;3.07;2.33;;;;;;;18.59;65.39;99640.41;7252946;40;20271;31
2023/08/11 00:23:25;;;;;;;4.60;2.30;;;;;;;18.53;65.42;99634.91;7224386;40;20250;31
2023/08/11 00:28:45;;;;;;;2.25;2.05;;;;;;;18.48;65.62;99644.53;7174470;40;20425;31
2023/08/11 00:34:20;;;;;;;3.60;2.30;;;;;;;18.29;66.73;99649.97;7179515;40;20322;31
2023/08/11 00:39:53;;;;;;;2.80;2.30;;;;;;;17.97;67.79;99646.91;7158731;40;20297;31
2023/08/11 00:50:33;;;;;;;2.50;2.10;;;;;;;17.82;67.98;99634.44;7232151;40;20273;31
2023/08/11 00:56:09;;;;;;;2.97;2.40;;;;;;;17.69;68.61;99640.66;7245705;40;20264;31
2023/08/11 01:01:29;;;;;;;2.70;2.40;;;;;;;17.52;68.79;99629.22;7221063;40;20254;31
2023/08/11 01:07:04;;;;;;;2.90;2.30;;;;;;;17.50;68.90;99635.91;7260629;40;20430;31
2023/08/11 01:12:41;;;;;;;2.80;2.40;;;;;;;17.51;69.45;99632.12;7255786;40;20269;31
2023/08/11 01:18:13;;;;;;;3.83;2.50;;;;;;;17.54;68.73;99616.25;7291635;39;20252;31
2023/08/11 01:23:49;;;;;;;3.80;2.40;;;;;;;17.49;69.25;99632.34;7275408;40;21966;31
2023/08/11 01:29:06;;;;;;;2.73;2.43;;;;;;;17.48;68.50;99632.53;7282545;40;20394;31
2023/08/11 01:34:38;;;;;;;3.80;3.20;;;;;;;17.46;68.66;99631.91;7280637;39;21587;31
2023/08/11 01:40:14;;;;;;;3.15;2.50;;;;;;;17.43;69.48;99627.69;7263618;40;20261;31
2023/08/11 01:45:48;;;;;;;4.07;2.50;;;;;;;17.49;68.45;99629.63;7240759;40;20260;31
2023/08/11 01:51:18;;;;;;;3.97;2.50;;;;;;;17.49;68.77;99623.31;7244525;40;20358;31
2023/08/11 01:56:52;;;;;;;3.20;2.30;;;;;;;17.43;69.37;99619.50;7283273;39;20263;31
2023/08/11 02:02:57;;;;;;;3.10;2.70;;;;;;;17.36;69.99;99607.75;7309461;39;20369;31
2023/08/11 02:08:17;;;;;;;2.73;2.53;;;;;;;17.13;70.50;99623.50;7313805;39;20267;31
2023/08/11 02:13:47;;;;;;;5.43;2.90;;;;;;;17.11;70.65;99617.44;7306790;39;20330;31
2023/08/11 02:19:05;;;;;;;5.83;2.50;;;;;;;17.23;70.18;99617.72;7253673;40;21809;31
2023/08/11 02:24:37;;;;;;;4.55;2.50;;;;;;;17.23;70.62;99604.09;7250689;40;20326;31
2023/08/11 02:30:11;;;;;;;6.43;2.80;;;;;;;17.15;71.01;99609.69;7201677;40;20342;31
2023/08/11 02:35:43;;;;;;;5.23;2.67;;;;;;;17.24;69.81;99598.44;7208848;40;20324;31
2023/08/11 02:41:01;;;;;;;4.37;2.50;;;;;;;17.32;69.73;99600.16;7252062;40;20349;31
2023/08/11 02:46:37;;;;;;;3.97;2.50;;;;;;;17.24;70.27;99603.06;7073910;40;21570;31
2023/08/11 02:51:56;;;;;;;6.03;2.63;;;;;;;17.30;69.25;99594.06;7222677;40;20261;31
2023/08/11 02:57:13;;;;;;;5.67;2.67;;;;;;;17.34;69.11;99598.06;7258085;40;20378;31
2023/08/11 03:02:46;;;;;;;4.83;2.70;;;;;;;17.25;69.57;99594.66;7279706;40;20334;31
2023/08/11 03:08:21;;;;;;;3.87;2.60;;;;;;;17.19;71.00;99590.03;7197802;40;20279;31
2023/08/11 03:19:02;;;;;;;2.47;2.23;;;;;;;17.25;70.19;99607.44;7241126;40;20381;31
2023/08/11 03:24:22;;;;;;;2.70;2.40;;;;;;;17.25;69.71;99612.87;7279243;39;22128;31
2023/08/11 03:29:53;;;;;;;3.53;2.57;;;;;;;17.19;70.33;99616.44;7265858;40;20275;31
2023/08/11 03:35:28;;;;;;;3.07;2.77;;;;;;;17.11;70.99;99612.78;7334693;39;21233;31
2023/08/11 03:41:03;;;;;;;3.85;2.50;;;;;;;17.10;70.64;99611.13;7281980;40;21534;31
2023/08/11 03:51:41;;;;;;;7.23;2.80;;;;;;;17.05;71.67;99610.88;7270312;39;20288;31
2023/08/11 04:02:05;;;;;;;5.73;2.90;;;;;;;16.91;71.34;99611.81;7241907;39;20380;31
2023/08/11 04:12:46;;;;;;;3.00;2.70;;;;;;;16.75;72.45;99612.09;7316574;39;20408;31
2023/08/11 04:23:10;;;;;;;4.75;3.00;;;;;;;16.62;72.54;99609.25;7323143;39;20299;31
2023/08/11 04:28:44;;;;;;;5.37;2.63;;;;;;;16.59;73.82;99609.63;7294213;39;20403;31
2023/08/11 04:39:05;;;;;;;5.30;3.00;;;;;;;16.65;72.40;99620.59;7333726;39;20270;31
2023/08/11 04:44:41;;;;;;;3.80;3.00;;;;;;;16.66;73.10;99622.28;7287698;39;20276;31
2023/08/11 04:50:13;;;;;;;4.53;2.60;;;;;;;16.71;73.03;99627.16;7272630;39;20344;31
2023/08/11 04:55:31;;;;;;;3.55;2.70;;;;;;;16.78;72.59;99636.19;7295116;39;20278;31
2023/08/11 05:01:03;;;;;;;4.07;2.80;;;;;;;16.73;72.64;99626.94;7294431;39;21592;31
2023/08/11 05:06:35;;;;;;;3.53;3.13;;;;;;;16.74;72.92;99632.19;7238141;40;20517;31
2023/08/11 05:11:55;;;;;;;3.93;3.10;;;;;;;16.78;73.24;99633.47;7198037;40;20262;31
2023/08/11 05:17:26;;;;;;;3.80;2.90;;;;;;;16.77;72.61;99628.22;7177377;40;20254;31
2023/08/11 05:22:47;;;;;;;4.53;2.87;;;;;;;16.79;73.05;99639.78;7225324;40;20347;31
2023/08/11 05:28:22;;;;;;;4.50;2.60;;;;;;;16.86;73.18;99648.81;7280650;39;20290;31
2023/08/11 05:39:01;;;;;;;4.36;2.90;;;;;;;17.19;72.31;99655.41;7270492;40;20369;31
2023/08/11 05:44:18;;;;;;;7.10;3.17;;;;;;;17.53;71.36;99666.34;7270768;40;20260;31
2023/08/11 05:49:53;;;;;;;4.10;2.90;;;;;;;17.69;71.64;99658.91;7317585;39;20260;31
2023/08/11 05:55:26;;;;;;;5.60;3.10;;;;;;;17.79;71.09;99662.97;7295339;40;20268;31
2023/08/11 06:00:47;;;;;;;3.30;2.70;;;;;;;17.96;71.13;99666.19;7297261;39;20360;31
2023/08/11 06:06:18;;;;;;;5.30;3.03;;;;;;;18.10;71.46;99665.22;7303108;39;20262;31
2023/08/11 06:11:54;;;;;;;5.03;3.20;;;;;;;18.26;70.78;99670.28;7287587;39;20289;31
2023/08/11 06:22:33;;;;;;;5.50;3.05;;;;;;;18.56;69.77;99665.37;7331836;39;20283;31
2023/08/11 06:33:13;;;;;;;5.50;3.00;;;;;;;18.98;69.21;99668.81;7322800;39;21141;31
2023/08/11 06:38:32;;;;;;;7.60;3.10;;;;;;;19.14;68.33;99668.38;7274104;40;20405;31
2023/08/11 06:43:48;;;;;;;3.50;3.17;;;;;;;19.26;68.99;99677.66;7276001;39;20360;31
2023/08/11 06:49:24;;;;;;;4.60;3.30;;;;;;;19.43;68.70;99670.75;7334572;39;20334;31
2023/08/11 06:54:59;;;;;;;5.17;3.40;;;;;;;19.58;66.47;99676.81;7255016;40;20255;31
2023/08/11 07:00:36;;;;;;;5.97;3.60;;;;;;;19.78;67.62;99683.09;7237259;40;20262;31
2023/08/11 07:06:10;;;;;;;4.93;3.40;;;;;;;19.99;65.32;99678.38;7233013;40;20258;31
2023/08/11 07:11:30;;;;;;;4.67;3.50;;;;;;;20.22;65.78;99682.31;7214517;40;20301;31
2023/08/11 07:17:05;;;;;;;10.40;3.50;;;;;;;20.34;65.97;99677.03;7298432;39;20268;31
2023/08/11 07:22:41;;;;;;;6.30;3.13;;;;;;;20.53;63.46;99687.03;7262340;40;20241;31
2023/08/11 07:28:16;;;;;;;5.00;2.80;;;;;;;20.82;64.35;99693.81;7271785;40;20320;31
2023/08/11 07:33:51;;;;;;;3.60;3.00;;;;;;;21.03;63.24;99689.88;7283732;40;20267;31
2023/08/11 07:39:27;;;;;;;4.53;3.10;;;;;;;21.24;62.59;99692.25;7256310;40;20327;31
2023/08/11 07:44:47;;;;;;;6.03;3.00;;;;;;;21.49;62.29;99689.53;7264495;40;20291;31
2023/08/11 07:50:19;;;;;;;6.18;3.28;;;;;;;21.67;62.44;99686.84;7281170;40;20280;31
2023/08/11 07:55:52;;;;;;;5.05;3.22;;;;;;;21.92;61.07;99693.12;7233571;40;20272;31
2023/08/11 08:01:10;;;;;;;4.15;3.20;;;;;;;22.14;59.65;99701.75;7250803;40;20423;31
2023/08/11 08:06:45;;;;;;;3.77;2.90;;;;;;;22.32;59.22;99701.75;7274118;40;20249;31
2023/08/11 08:12:18;;;;;;;5.43;3.20;;;;;;;22.44;59.00;99702.66;7266505;39;20248;31
2023/08/11 08:17:53;;;;;;;5.43;2.80;;;;;;;22.69;58.21;99712.66;7238545;40;20268;31
2023/08/11 08:23:28;;;;;;;4.15;2.58;;;;;;;22.89;57.91;99707.78;7234038;40;20367;31
2023/08/11 08:29:00;;;;;;;4.57;2.72;;;;;;;23.05;58.70;99701.59;7242578;40;20245;31
2023/08/11 08:34:18;;;;;;;4.03;3.20;;;;;;;23.34;58.26;99702.63;7240359;40;20349;31
2023/08/11 08:39:53;;;;;;;3.28;2.97;;;;;;;23.59;56.71;99711.53;7303677;39;20276;31
2023/08/11 08:45:27;;;;;;;3.72;3.10;;;;;;;23.82;57.74;99713.47;7231627;40;20289;31
2023/08/11 08:51:03;;;;;;;4.90;3.30;;;;;;;24.01;56.57;99709.47;7284326;40;20244;31
2023/08/11 08:56:38;;;;;;;4.70;3.10;;;;;;;24.17;56.23;99706.03;7316533;39;20248;31
2023/08/11 09:02:14;;;;;;;3.17;2.70;;;;;;;24.35;56.66;99704.19;7314944;39;20251;31
2023/08/11 09:07:34;;;;;;;3.25;2.75;;;;;;;24.66;56.48;99706.50;7265849;40;20271;31
2023/08/11 09:12:54;;;;;;;3.90;3.00;;;;;;;24.94;54.72;99701.00;7327702;39;20255;31
2023/08/11 09:18:28;;;;;;;3.10;2.80;;;;;;;25.04;54.35;99698.44;7286273;40;20416;31
2023/08/11 09:23:49;;;;;;;3.80;3.00;;;;;;;25.29;54.33;99695.28;7269341;40;21320;31
2023/08/11 09:29:23;;;;;;;4.40;3.45;;;;;;;25.39;54.19;99686.31;7282238;39;20351;31
2023/08/11 09:34:59;;;;;;;5.70;3.00;;;;;;;25.56;53.28;99689.94;7248028;40;20482;31
2023/08/11 09:40:34;;;;;;;4.45;2.90;;;;;;;25.68;53.08;99685.16;7264720;40;20260;31
2023/08/11 09:45:55;;;;;;;4.95;3.00;;;;;;;25.70;52.21;99693.22;7295486;39;20249;31
2023/08/11 09:51:30;;;;;;;4.10;3.03;;;;;;;25.85;52.27;99682.38;7293418;39;20273;31
2023/08/11 09:57:03;;;;;;;5.40;2.94;;;;;;;26.18;52.65;99698.03;7066463;40;20252;31
2023/08/11 10:02:37;;;;;;;8.68;3.65;;;;;;;26.40;52.17;99694.22;7241383;40;20265;31
2023/08/11 10:08:11;;;;;;;3.40;2.84;;;;;;;26.50;51.57;99688.00;7253275;40;20269;31
2023/08/11 10:13:47;;;;;;;4.07;3.30;;;;;;;26.66;51.48;99689.00;7244295;40;20275;31
2023/08/11 10:19:22;;;;;;;4.35;3.15;;;;;;;26.82;51.45;99688.06;7283939;40;20252;31
2023/08/11 10:24:58;;;;;;;4.67;3.00;;;;;;;26.97;50.83;99681.87;7229915;40;20569;31
2023/08/11 10:30:30;;;;;;;4.60;2.68;;;;;;;27.25;51.12;99665.00;7195026;40;20385;31
2023/08/11 10:36:17;;;;;;;3.20;2.75;;;;;;;27.33;51.83;99667.28;7175388;40;20274;31
2023/08/11 10:41:53;;;;;;;3.70;2.97;;;;;;;27.43;50.94;99655.44;7203092;40;20265;31
2023/08/11 10:47:25;;;;;;;4.62;2.90;;;;;;;27.65;50.76;99653.41;7222796;40;20308;31
2023/08/11 10:52:42;;;;;;;3.95;3.20;;;;;;;27.68;50.34;99653.72;7233874;40;20276;31
2023/08/11 10:58:23;;;;;;;3.80;3.03;;;;;;;27.86;49.79;99648.84;7282948;39;20476;31
2023/08/11 11:03:43;;;;;;;6.05;2.65;;;;;;;27.93;48.90;99649.44;7293753;39;21283;31
2023/08/11 11:14:18;;;;;;;6.00;3.00;;;;;;;28.27;48.42;99639.62;7320753;39;21460;31
2023/08/11 11:19:50;;;;;;;5.03;2.70;;;;;;;28.17;49.81;99648.75;7259326;40;20393;31
2023/08/11 11:25:25;;;;;;;3.75;2.80;;;;;;;28.32;49.98;99642.44;7233464;40;20267;31
2023/08/11 11:30:59;;;;;;;5.17;3.00;;;;;;;28.50;47.96;99627.25;7233732;40;20269;31
2023/08/11 11:36:31;;;;;;;3.75;2.78;;;;;;;28.52;49.13;99620.31;7146751;40;20283;31
2023/08/11 11:41:48;;;;;;;4.03;2.75;;;;;;;28.62;48.15;99620.34;7213740;40;20265;31
2023/08/11 11:47:19;;;;;;;4.93;2.97;;;;;;;28.62;48.33;99623.09;7212506;40;20340;31
2023/08/11 11:57:55;;;;;;;4.45;2.72;;;;;;;28.95;46.67;99634.84;7327107;39;21195;31
2023/08/11 12:08:33;;;;;;;6.30;2.65;;;;;;;29.10;47.25;99637.63;7319420;39;21163;31
2023/08/11 12:19:09;;;;;;;5.30;2.90;;;;;;;29.28;46.63;99625.97;7318109;39;20282;31
2023/08/11 12:24:29;;;;;;;3.47;2.90;;;;;;;29.55;47.56;99628.47;7275014;40;20351;31
2023/08/11 12:30:06;;;;;;;3.00;2.60;;;;;;;29.64;46.27;99621.25;7279213;39;20394;31
2023/08/11 12:35:37;;;;;;;2.97;2.72;;;;;;;29.34;47.23;99616.56;7313563;39;20356;31
2023/08/11 12:41:09;;;;;;;4.20;3.00;;;;;;;29.64;46.38;99614.84;7285094;40;20291;31
2023/08/11 12:51:44;;;;;;;3.27;2.60;;;;;;;29.83;46.23;99619.53;7305334;39;20303;31
2023/08/11 12:57:19;;;;;;;2.95;2.65;;;;;;;30.02;46.19;99607.81;7222036;40;20253;31
2023/08/11 13:02:51;;;;;;;3.90;3.00;;;;;;;30.02;45.46;99603.09;7227252;40;20268;31
2023/08/11 13:08:24;;;;;;;4.03;3.30;;;;;;;29.99;45.48;99609.22;7233189;40;20261;31
2023/08/11 13:13:56;;;;;;;4.75;2.60;;;;;;;30.11;46.37;99601.38;7185128;40;21378;31
2023/08/11 13:19:13;;;;;;;3.40;2.90;;;;;;;30.25;46.04;99607.16;7176490;40;20255;31
2023/08/11 13:24:47;;;;;;;5.18;2.72;;;;;;;30.30;44.32;99585.72;7218014;40;20257;31
2023/08/11 13:30:19;;;;;;;4.65;2.85;;;;;;;30.20;44.43;99585.78;7261192;40;20253;31
2023/08/11 13:35:34;;;;;;;2.85;2.62;;;;;;;30.09;44.96;99591.66;7281520;40;20303;31
2023/08/11 13:41:10;;;;;;;4.13;2.55;;;;;;;30.15;43.99;99585.78;7321577;39;20259;31
2023/08/11 13:46:45;;;;;;;3.18;2.82;;;;;;;30.09;43.71;99584.16;7259380;40;20351;31
2023/08/11 13:52:03;;;;;;;3.26;2.82;;;;;;;30.06;43.92;99586.69;7294131;39;20430;31
2023/08/11 13:57:32;;;;;;;4.10;2.95;;;;;;;30.10;44.68;99571.09;7273886;40;20447;31
2023/08/11 14:03:07;;;;;;;3.42;2.87;;;;;;;30.39;45.31;99574.81;7190499;40;20477;31
2023/08/11 14:08:24;;;;;;;7.78;3.10;;;;;;;30.49;44.41;99560.06;7172514;40;20249;31
2023/08/11 14:13:55;;;;;;;5.14;2.82;;;;;;;30.51;44.54;99552.22;7238700;40;20276;31
2023/08/11 14:24:31;;;;;;;2.60;2.40;;;;;;;30.28;45.18;99540.66;7285045;39;20271;31
2023/08/11 14:35:11;;;;;;;3.20;2.90;;;;;;;30.17;45.14;99530.72;7297967;39;20360;31
2023/08/11 14:40:32;;;;;;;3.37;2.83;;;;;;;30.32;44.21;99533.41;7297916;39;21327;31
2023/08/11 14:45:50;;;;;;;4.07;2.58;;;;;;;30.05;44.39;99519.13;7315112;39;21533;31
2023/08/11 14:51:25;;;;;;;4.35;2.75;;;;;;;30.15;44.42;99516.25;7275500;39;20256;31
2023/08/11 14:56:43;;;;;;;4.50;2.80;;;;;;;30.15;45.25;99524.59;7257303;40;20263;31
2023/08/11 15:02:00;;;;;;;2.85;2.53;;;;;;;30.20;44.45;99526.53;7309715;39;20335;31
2023/08/11 15:07:32;;;;;;;3.45;2.75;;;;;;;30.22;44.59;99521.53;7303878;39;20280;31
2023/08/11 15:13:04;;;;;;;3.25;2.50;;;;;;;30.41;44.14;99511.34;7299753;39;20260;31
2023/08/11 15:18:22;;;;;;;3.20;2.46;;;;;;;30.38;45.37;99512.78;7258875;40;20440;31
2023/08/11 15:23:55;;;;;;;4.50;2.92;;;;;;;30.41;44.12;99509.41;7213728;40;20272;31
2023/08/11 15:29:27;;;;;;;4.05;2.50;;;;;;;30.39;43.81;99496.91;7203301;40;20269;31
2023/08/11 15:34:59;;;;;;;3.20;2.50;;;;;;;30.43;44.53;99484.09;7192479;40;20258;31
2023/08/11 15:40:35;;;;;;;4.10;2.97;;;;;;;30.56;43.88;99477.91;7173058;40;20357;31
2023/08/11 15:46:07;;;;;;;3.67;2.77;;;;;;;30.48;43.83;99475.75;7215710;40;22301;31
2023/08/11 15:51:25;;;;;;;4.87;2.65;;;;;;;30.51;43.90;99480.72;7178537;40;20276;31
2023/08/11 15:56:57;;;;;;;3.87;3.00;;;;;;;30.33;44.09;99475.81;7251224;40;20276;31
2023/08/11 16:02:15;;;;;;;4.07;2.65;;;;;;;30.41;43.97;99472.41;7265795;40;20265;31
2023/08/11 16:07:35;;;;;;;3.28;2.64;;;;;;;30.46;44.49;99471.56;7304636;39;20349;31
2023/08/11 16:13:10;;;;;;;4.72;2.80;;;;;;;30.31;44.65;99467.78;7328201;39;20278;31
2023/08/11 16:18:31;;;;;;;3.03;2.72;;;;;;;30.24;44.37;99477.53;7229118;40;20282;31
2023/08/11 16:23:51;;;;;;;3.28;2.87;;;;;;;30.15;44.18;99470.91;7248010;40;21236;31
2023/08/11 16:29:27;;;;;;;3.45;2.95;;;;;;;30.13;45.34;99470.41;7311822;39;20333;31
2023/08/11 16:34:47;;;;;;;3.00;2.70;;;;;;;30.08;45.11;99465.69;7134753;39;20508;31
2023/08/11 16:40:20;;;;;;;4.05;2.60;;;;;;;30.05;44.44;99466.28;7273272;40;20413;31
2023/08/11 16:45:56;;;;;;;5.10;2.68;;;;;;;30.01;45.15;99453.25;7282720;39;20349;31
2023/08/11 16:51:28;;;;;;;8.02;2.70;;;;;;;29.90;45.33;99452.44;7278143;39;20486;31
2023/08/11 16:57:00;;;;;;;3.22;2.87;;;;;;;29.81;45.49;99451.34;7211132;40;20363;31
2023/08/11 17:02:31;;;;;;;4.07;2.65;;;;;;;29.74;45.00;99459.19;7188879;40;20273;31
2023/08/11 17:12:55;;;;;;;7.55;3.25;;;;;;;29.59;46.38;99451.75;7270104;40;20264;31
2023/08/11 17:18:28;;;;;;;3.85;2.47;;;;;;;29.50;47.76;99451.50;7288884;39;20261;31
2023/08/11 17:23:58;;;;;;;3.53;2.40;;;;;;;29.42;47.00;99443.75;7308422;39;20348;31
2023/08/11 17:29:30;;;;;;;3.05;2.75;;;;;;;29.31;49.07;99442.13;7297838;39;20323;31
2023/08/11 17:35:03;;;;;;;3.58;2.70;;;;;;;29.12;48.98;99436.34;7192674;40;20281;31
2023/08/11 17:40:35;;;;;;;3.96;2.86;;;;;;;29.10;48.60;99440.50;7202512;40;20261;31
2023/08/11 17:46:07;;;;;;;3.60;2.87;;;;;;;29.03;49.02;99440.81;7211762;40;20326;31
2023/08/11 17:51:40;;;;;;;4.15;3.00;;;;;;;28.82;50.15;99446.69;7244570;40;20273;31
2023/08/11 17:57:12;;;;;;;3.37;2.72;;;;;;;28.77;51.97;99443.91;7272341;39;20260;31
2023/08/11 18:02:44;;;;;;;5.10;2.80;;;;;;;28.67;53.22;99445.53;7255380;40;20261;31
2023/08/11 18:08:17;;;;;;;3.22;2.90;;;;;;;28.54;54.21;99439.72;7195609;40;20442;31
2023/08/11 18:13:37;;;;;;;4.82;2.90;;;;;;;28.49;53.61;99445.25;7199452;40;20282;31
2023/08/11 18:18:54;;;;;;;3.30;3.00;;;;;;;28.41;54.99;99440.28;7256759;40;20322;31
2023/08/11 18:24:25;;;;;;;3.65;3.20;;;;;;;28.22;56.79;99443.59;7315772;39;20451;31
2023/08/11 18:29:42;;;;;;;4.95;3.12;;;;;;;28.04;57.28;99446.84;7310427;39;20325;31
2023/08/11 18:35:14;;;;;;;7.50;3.40;;;;;;;27.87;57.31;99456.50;7257227;40;20290;31
2023/08/11 18:45:51;;;;;;;4.32;3.10;;;;;;;27.33;59.60;99451.31;7257756;40;20284;31
2023/08/11 18:51:23;;;;;;;3.67;3.37;;;;;;;27.15;60.12;99457.31;7292770;40;20291;31
2023/08/11 19:01:58;;;;;;;4.20;3.50;;;;;;;26.72;60.50;99455.59;7275033;40;21180;31
2023/08/11 19:12:19;;;;;;;3.30;3.00;;;;;;;26.36;60.76;99460.84;7260590;39;20266;31
2023/08/11 19:22:57;;;;;;;3.26;2.86;;;;;;;25.93;61.38;99478.31;7323211;39;20393;31
2023/08/11 19:28:17;;;;;;;4.70;3.10;;;;;;;25.78;62.21;99469.03;7295560;40;20313;31
2023/08/11 19:33:35;;;;;;;3.93;3.03;;;;;;;25.71;61.41;99468.44;7301609;39;20428;31
2023/08/11 19:39:10;;;;;;;3.80;2.97;;;;;;;25.47;62.03;99471.41;7276925;40;20256;31
2023/08/11 19:44:31;;;;;;;3.40;3.10;;;;;;;25.31;63.34;99474.22;7202582;40;20249;31
2023/08/11 19:50:03;;;;;;;3.25;2.80;;;;;;;25.24;63.09;99466.13;7232443;40;21213;31
2023/08/11 19:55:36;;;;;;;4.05;2.65;;;;;;;25.01;62.99;99458.09;7214420;40;20308;31
2023/08/11 20:00:53;;;;;;;3.22;2.92;;;;;;;24.93;63.90;99464.00;7203622;40;20526;31
2023/08/11 20:11:34;;;;;;;3.45;3.15;;;;;;;24.68;64.25;99462.53;7267962;39;20252;31
2023/08/11 20:17:09;;;;;;;2.90;2.70;;;;;;;24.63;64.16;99465.19;7302226;39;20264;31
2023/08/11 20:22:26;;;;;;;3.62;2.80;;;;;;;24.55;63.82;99456.50;7282630;40;20268;31
2023/08/11 20:33:04;;;;;;;4.25;2.80;;;;;;;24.36;64.38;99450.41;7319905;39;21151;31
2023/08/11 20:38:39;;;;;;;3.95;2.70;;;;;;;24.34;64.82;99449.84;7355746;39;20254;31
2023/08/11 20:43:59;;;;;;;3.55;2.80;;;;;;;24.28;64.18;99448.06;7355467;39;20420;31
2023/08/11 20:49:35;;;;;;;3.30;2.95;;;;;;;24.12;65.32;99441.44;7316650;39;20271;31
2023/08/11 20:54:56;;;;;;;3.30;2.80;;;;;;;24.04;65.28;99441.84;7263561;40;20432;31
2023/08/11 21:00:31;;;;;;;4.47;2.57;;;;;;;23.95;65.86;99443.31;7279703;39;20457;31
2023/08/11 21:06:04;;;;;;;3.83;3.25;;;;;;;23.82;65.21;99438.13;7272998;40;20423;31
2023/08/11 21:11:36;;;;;;;4.90;2.80;;;;;;;23.77;65.97;99432.50;7277390;39;20277;31
2023/08/11 21:16:57;;;;;;;3.28;2.62;;;;;;;23.73;65.71;99434.09;7290941;39;20379;31
2023/08/11 21:22:29;;;;;;;3.37;2.77;;;;;;;23.59;67.07;99436.31;7328439;39;20330;31
2023/08/11 21:32:51;;;;;;;3.60;3.10;;;;;;;23.55;65.46;99428.78;7280533;39;21087;31
2023/08/11 21:38:26;;;;;;;3.67;2.85;;;;;;;23.49;67.07;99422.31;7294470;40;20283;31
2023/08/11 21:43:48;;;;;;;3.20;2.62;;;;;;;23.45;66.49;99434.06;7222520;40;20327;31
2023/08/11 21:49:22;;;;;;;3.36;2.70;;;;;;;23.34;67.34;99422.81;7216740;40;20263;31
2023/08/11 21:54:58;;;;;;;4.50;2.80;;;;;;;23.27;67.00;99421.28;7190035;40;21138;31
2023/08/11 22:00:16;;;;;;;4.20;2.90;;;;;;;23.26;66.56;99428.69;7209212;40;20359;31
2023/08/11 22:05:51;;;;;;;5.65;3.20;;;;;;;23.18;67.18;99422.75;7214220;40;20332;31
2023/08/11 22:11:25;;;;;;;3.97;2.87;;;;;;;23.10;67.24;99421.22;7197793;40;20457;31
2023/08/11 22:16:47;;;;;;;3.50;2.90;;;;;;;23.11;67.79;99411.88;7239185;39;20311;31
2023/08/11 22:22:07;;;;;;;3.47;2.67;;;;;;;23.09;67.25;99408.53;7283026;39;20256;31
2023/08/11 22:27:41;;;;;;;3.80;2.60;;;;;;;22.89;69.11;99413.59;7254795;40;20316;31
2023/08/11 22:33:16;;;;;;;2.90;2.50;;;;;;;22.74;69.22;99418.75;7240949;40;20299;31
2023/08/11 22:38:51;;;;;;;3.80;2.75;;;;;;;22.59;70.16;99410.12;7222381;40;20264;31
2023/08/11 22:44:24;;;;;;;3.75;3.10;;;;;;;22.66;70.39;99399.84;7250738;40;20284;31
2023/08/11 22:54:49;;;;;;;4.78;3.12;;;;;;;22.73;69.60;99392.34;7244076;40;20315;31
2023/08/11 23:05:28;;;;;;;5.85;3.58;;;;;;;22.70;70.05;99398.31;7324569;39;21095;31
2023/08/11 23:15:52;;;;;;;4.35;3.28;;;;;;;22.71;69.49;99394.50;7335501;39;20260;31
2023/08/11 23:21:29;;;;;;;3.50;3.08;;;;;;;22.71;69.59;99394.50;7275678;39;20489;31
2023/08/11 23:27:04;;;;;;;3.30;3.00;;;;;;;22.72;70.05;99393.41;7282617;40;20260;31
2023/08/11 23:32:35;;;;;;;3.92;3.35;;;;;;;22.64;70.68;99393.75;7115980;39;20332;31
2023/08/11 23:38:12;;;;;;;3.55;3.20;;;;;;;22.52;71.06;99384.66;7219466;40;20301;31
2023/08/11 23:43:44;;;;;;;4.22;3.70;;;;;;;22.57;71.26;99371.03;7224997;40;20296;31
2023/08/11 23:49:04;;;;;;;4.45;3.40;;;;;;;22.62;70.61;99369.25;7217163;40;20372;31
2023/08/11 23:54:50;;;;;;;3.90;3.55;;;;;;;22.63;71.17;99364.59;7203223;40;20286;31
